Flight Number: EUR1100 Duration: 2:45
Departure: Bucharest Otopeni (LROP) at 18:15 Distance: 1126 Nm
Arrival: Gatwick Airport (EGKK) at 21:00 Equipment: MD-81

Weather Information
Bucuresti Otopeni, Romania (LROP) 44-33N 026-06E 95M May 23, 2018 - 07:30 PM EDT / 2018.05.23 2330 UTC
Wind: from the NE (050 degrees) at 3 MPH (3 KT):0
Visibility: greater than 7 mile(s):0 Temperature: 60 F (16 C) Dew Point: 55 F (13 C) Relative Humidity: 82% Pressure (altimeter): 30.03 in. Hg (1017 hPa)
ob: LROP 232330Z 05003KT CAVOK 16/13 Q1017 NOSIG cycle: 23
Sunrise: 02:42 Sunset: 17:42 (UTC)

London / Gatwick Airport, United Kingdom (EGKK) 51-09N 000-11W 0M May 23, 2018 - 08:20 PM EDT / 2018.05.24 0020 UTC
Wind: from the N (010 degrees) at 9 MPH (8 KT):0
Visibility: 5 mile(s):0 Weather: light rain Temperature: 55 F (13 C) Dew Point: 50 F (10 C) Relative Humidity: 81% Pressure (altimeter): 30.15 in. Hg (1021 hPa)
ob: EGKK 240020Z 01008KT 9000 -RA NSC 13/10 Q1021 cycle: 0
Sunrise: 04:02 Sunset: 19:52 (UTC)

TAF:2018/05/23 18:15 TAF EGKK 231705Z 2318/2424 02010KT 9999 SCT030 PROB30 TEMPO 2318/2321 7000 SHRA TEMPO 2321/2418 6000 SHRA PROB30 TEMPO 2323/2406 4000 +SHRA PROB40 TEMPO 2410/2418 04015G25KT 4000 +SHRA BECMG 2418/2421 VRB03KT

Previous Pireps for this route
Date Aircraft Flight time Fuel used Landing rate On time
2012-07-16MD-813.05220000Yes
2012-12-07MD-8103.1719566-206Yes
2015-09-01MD-812.5623701-297Yes
(pireps marked green are flown by you)

Route map